sensor_id;sensor_type;location;lat;lon;timestamp;temperature;humidity
79016;DHT22;72726;44.842;37.556;2023-09-12T00:00:47;16.59;69.34
79016;DHT22;72726;44.842;37.556;2023-09-12T00:01:48;16.56;69.58
79016;DHT22;72726;44.842;37.556;2023-09-12T00:02:50;16.56;69.72
79016;DHT22;72726;44.842;37.556;2023-09-12T00:03:51;16.53;69.65
79016;DHT22;72726;44.842;37.556;2023-09-12T00:04:52;16.52;69.70
79016;DHT22;72726;44.842;37.556;2023-09-12T00:05:55;16.47;69.47
79016;DHT22;72726;44.842;37.556;2023-09-12T00:06:57;16.47;69.40
79016;DHT22;72726;44.842;37.556;2023-09-12T00:07:58;16.42;69.32
79016;DHT22;72726;44.842;37.556;2023-09-12T00:09:00;16.42;69.34
79016;DHT22;72726;44.842;37.556;2023-09-12T00:10:02;16.42;69.17
79016;DHT22;72726;44.842;37.556;2023-09-12T00:11:07;16.42;68.92
79016;DHT22;72726;44.842;37.556;2023-09-12T00:12:14;16.41;68.73
79016;DHT22;72726;44.842;37.556;2023-09-12T00:13:16;16.36;68.89
79016;DHT22;72726;44.842;37.556;2023-09-12T00:14:17;16.34;68.75
79016;DHT22;72726;44.842;37.556;2023-09-12T00:15:19;16.32;68.67
79016;DHT22;72726;44.842;37.556;2023-09-12T00:16:20;16.32;68.42
79016;DHT22;72726;44.842;37.556;2023-09-12T00:17:22;16.28;68.39
79016;DHT22;72726;44.842;37.556;2023-09-12T00:18:24;16.28;68.37
79016;DHT22;72726;44.842;37.556;2023-09-12T00:19:25;16.25;67.93
79016;DHT22;72726;44.842;37.556;2023-09-12T00:20:26;16.24;67.75
79016;DHT22;72726;44.842;37.556;2023-09-12T00:21:28;16.25;67.61
79016;DHT22;72726;44.842;37.556;2023-09-12T00:22:29;16.22;67.53
79016;DHT22;72726;44.842;37.556;2023-09-12T00:23:31;16.22;67.42
79016;DHT22;72726;44.842;37.556;2023-09-12T00:24:32;16.24;67.36
79016;DHT22;72726;44.842;37.556;2023-09-12T00:25:34;16.24;66.98
79016;DHT22;72726;44.842;37.556;2023-09-12T00:26:35;16.28;66.74
79016;DHT22;72726;44.842;37.556;2023-09-12T00:27:37;16.32;66.69
79016;DHT22;72726;44.842;37.556;2023-09-12T00:28:38;16.31;66.61
79016;DHT22;72726;44.842;37.556;2023-09-12T00:29:39;16.31;66.57
79016;DHT22;72726;44.842;37.556;2023-09-12T00:30:40;16.29;66.49
79016;DHT22;72726;44.842;37.556;2023-09-12T00:31:42;16.34;66.32
79016;DHT22;72726;44.842;37.556;2023-09-12T00:32:45;16.35;66.14
79016;DHT22;72726;44.842;37.556;2023-09-12T00:33:46;16.35;66.03
79016;DHT22;72726;44.842;37.556;2023-09-12T00:34:47;16.36;65.87
79016;DHT22;72726;44.842;37.556;2023-09-12T00:35:49;16.34;65.82
79016;DHT22;72726;44.842;37.556;2023-09-12T00:36:50;16.36;65.79
79016;DHT22;72726;44.842;37.556;2023-09-12T00:37:51;16.35;66.08
79016;DHT22;72726;44.842;37.556;2023-09-12T00:38:52;16.41;66.04
79016;DHT22;72726;44.842;37.556;2023-09-12T00:39:53;16.41;65.95
79016;DHT22;72726;44.842;37.556;2023-09-12T00:40:54;16.38;66.06
79016;DHT22;72726;44.842;37.556;2023-09-12T00:41:55;16.38;66.20
79016;DHT22;72726;44.842;37.556;2023-09-12T00:42:57;16.41;66.00
79016;DHT22;72726;44.842;37.556;2023-09-12T00:43:59;16.42;65.74
79016;DHT22;72726;44.842;37.556;2023-09-12T00:45:01;16.45;66.07
79016;DHT22;72726;44.842;37.556;2023-09-12T00:46:02;16.41;65.75
79016;DHT22;72726;44.842;37.556;2023-09-12T00:47:04;16.42;65.80
79016;DHT22;72726;44.842;37.556;2023-09-12T00:48:06;16.42;65.91
79016;DHT22;72726;44.842;37.556;2023-09-12T00:49:08;16.44;65.65
79016;DHT22;72726;44.842;37.556;2023-09-12T00:50:10;16.44;65.70
79016;DHT22;72726;44.842;37.556;2023-09-12T00:51:14;16.42;65.89
79016;DHT22;72726;44.842;37.556;2023-09-12T00:52:17;16.40;66.16
79016;DHT22;72726;44.842;37.556;2023-09-12T00:53:20;16.41;66.52
79016;DHT22;72726;44.842;37.556;2023-09-12T00:54:21;16.45;66.19
79016;DHT22;72726;44.842;37.556;2023-09-12T00:55:22;16.49;66.28
79016;DHT22;72726;44.842;37.556;2023-09-12T00:56:24;16.55;65.96
79016;DHT22;72726;44.842;37.556;2023-09-12T00:57:25;16.53;66.03
79016;DHT22;72726;44.842;37.556;2023-09-12T00:58:27;16.53;66.15
79016;DHT22;72726;44.842;37.556;2023-09-12T00:59:28;16.53;66.29
79016;DHT22;72726;44.842;37.556;2023-09-12T01:00:30;16.53;66.34
79016;DHT22;72726;44.842;37.556;2023-09-12T01:01:32;16.51;66.40
79016;DHT22;72726;44.842;37.556;2023-09-12T01:02:33;16.51;66.23
79016;DHT22;72726;44.842;37.556;2023-09-12T01:03:35;16.47;66.25
79016;DHT22;72726;44.842;37.556;2023-09-12T01:04:37;16.47;66.32
79016;DHT22;72726;44.842;37.556;2023-09-12T01:05:38;16.45;66.43
79016;DHT22;72726;44.842;37.556;2023-09-12T01:06:39;16.42;66.38
79016;DHT22;72726;44.842;37.556;2023-09-12T01:07:42;16.45;66.30
79016;DHT22;72726;44.842;37.556;2023-09-12T01:08:43;16.42;66.37
79016;DHT22;72726;44.842;37.556;2023-09-12T01:09:45;16.40;66.54
79016;DHT22;72726;44.842;37.556;2023-09-12T01:10:47;16.40;66.63
79016;DHT22;72726;44.842;37.556;2023-09-12T01:11:49;16.36;66.74
79016;DHT22;72726;44.842;37.556;2023-09-12T01:12:50;16.31;66.92
79016;DHT22;72726;44.842;37.556;2023-09-12T01:13:51;16.29;67.00
79016;DHT22;72726;44.842;37.556;2023-09-12T01:14:53;16.26;66.99
79016;DHT22;72726;44.842;37.556;2023-09-12T01:15:54;16.28;66.89
79016;DHT22;72726;44.842;37.556;2023-09-12T01:16:56;16.22;66.96
79016;DHT22;72726;44.842;37.556;2023-09-12T01:17:58;16.24;66.95
79016;DHT22;72726;44.842;37.556;2023-09-12T01:18:59;16.17;67.03
79016;DHT22;72726;44.842;37.556;2023-09-12T01:20:01;16.15;67.02
79016;DHT22;72726;44.842;37.556;2023-09-12T01:21:28;16.13;67.03
79016;DHT22;72726;44.842;37.556;2023-09-12T01:23:00;16.15;67.11
79016;DHT22;72726;44.842;37.556;2023-09-12T01:28:05;16.07;66.94
79016;DHT22;72726;44.842;37.556;2023-09-12T01:29:14;16.07;66.88
79016;DHT22;72726;44.842;37.556;2023-09-12T01:30:18;16.01;67.08
79016;DHT22;72726;44.842;37.556;2023-09-12T01:31:22;15.98;67.03
79016;DHT22;72726;44.842;37.556;2023-09-12T01:32:24;15.97;66.84
79016;DHT22;72726;44.842;37.556;2023-09-12T01:33:26;15.98;66.71
79016;DHT22;72726;44.842;37.556;2023-09-12T01:34:28;16.00;66.59
79016;DHT22;72726;44.842;37.556;2023-09-12T01:35:29;15.98;66.78
79016;DHT22;72726;44.842;37.556;2023-09-12T01:36:30;16.00;66.78
79016;DHT22;72726;44.842;37.556;2023-09-12T01:37:31;15.97;66.21
79016;DHT22;72726;44.842;37.556;2023-09-12T01:38:33;15.98;66.48
79016;DHT22;72726;44.842;37.556;2023-09-12T01:39:34;15.94;66.35
79016;DHT22;72726;44.842;37.556;2023-09-12T01:40:48;15.89;66.49
79016;DHT22;72726;44.842;37.556;2023-09-12T01:41:52;15.89;66.84
79016;DHT22;72726;44.842;37.556;2023-09-12T01:42:54;15.87;66.74
79016;DHT22;72726;44.842;37.556;2023-09-12T01:43:57;15.87;66.72
79016;DHT22;72726;44.842;37.556;2023-09-12T01:45:01;15.85;65.88
79016;DHT22;72726;44.842;37.556;2023-09-12T01:46:02;15.89;65.56
79016;DHT22;72726;44.842;37.556;2023-09-12T01:47:04;15.90;65.93
79016;DHT22;72726;44.842;37.556;2023-09-12T01:48:07;15.87;66.34
79016;DHT22;72726;44.842;37.556;2023-09-12T01:49:09;15.83;66.61
79016;DHT22;72726;44.842;37.556;2023-09-12T01:50:12;15.86;66.57
79016;DHT22;72726;44.842;37.556;2023-09-12T01:51:14;15.89;65.20
79016;DHT22;72726;44.842;37.556;2023-09-12T01:52:16;15.91;65.35
79016;DHT22;72726;44.842;37.556;2023-09-12T01:53:18;15.91;64.81
79016;DHT22;72726;44.842;37.556;2023-09-12T01:54:21;15.94;64.16
79016;DHT22;72726;44.842;37.556;2023-09-12T01:55:24;16.00;63.86
79016;DHT22;72726;44.842;37.556;2023-09-12T01:56:26;15.94;64.64
79016;DHT22;72726;44.842;37.556;2023-09-12T01:57:28;15.90;64.71
79016;DHT22;72726;44.842;37.556;2023-09-12T01:58:30;15.86;65.05
79016;DHT22;72726;44.842;37.556;2023-09-12T01:59:32;15.86;65.15
79016;DHT22;72726;44.842;37.556;2023-09-12T02:00:34;15.86;65.51
79016;DHT22;72726;44.842;37.556;2023-09-12T02:01:35;15.85;65.20
79016;DHT22;72726;44.842;37.556;2023-09-12T02:02:37;15.83;65.17
79016;DHT22;72726;44.842;37.556;2023-09-12T02:03:38;15.83;65.19
79016;DHT22;72726;44.842;37.556;2023-09-12T02:04:39;15.83;65.12
79016;DHT22;72726;44.842;37.556;2023-09-12T02:05:40;15.82;64.78
79016;DHT22;72726;44.842;37.556;2023-09-12T02:06:41;15.82;63.70
79016;DHT22;72726;44.842;37.556;2023-09-12T02:07:42;15.83;64.72
79016;DHT22;72726;44.842;37.556;2023-09-12T02:08:43;15.79;64.42
79016;DHT22;72726;44.842;37.556;2023-09-12T02:09:45;15.76;64.44
79016;DHT22;72726;44.842;37.556;2023-09-12T02:10:46;15.77;64.37
79016;DHT22;72726;44.842;37.556;2023-09-12T02:11:48;15.82;64.05
79016;DHT22;72726;44.842;37.556;2023-09-12T02:12:50;15.83;63.91
79016;DHT22;72726;44.842;37.556;2023-09-12T02:13:51;15.86;63.73
79016;DHT22;72726;44.842;37.556;2023-09-12T02:14:52;15.91;63.57
79016;DHT22;72726;44.842;37.556;2023-09-12T02:16:00;15.96;62.61
79016;DHT22;72726;44.842;37.556;2023-09-12T02:17:01;15.98;63.53
79016;DHT22;72726;44.842;37.556;2023-09-12T02:18:03;15.86;63.53
79016;DHT22;72726;44.842;37.556;2023-09-12T02:19:05;15.86;63.31
79016;DHT22;72726;44.842;37.556;2023-09-12T02:20:08;15.89;62.70
79016;DHT22;72726;44.842;37.556;2023-09-12T02:21:09;15.90;62.86
79016;DHT22;72726;44.842;37.556;2023-09-12T02:22:11;15.93;62.64
79016;DHT22;72726;44.842;37.556;2023-09-12T02:23:12;15.93;62.59
79016;DHT22;72726;44.842;37.556;2023-09-12T02:24:13;15.94;62.42
79016;DHT22;72726;44.842;37.556;2023-09-12T02:25:14;15.98;62.44
79016;DHT22;72726;44.842;37.556;2023-09-12T02:26:15;16.00;62.03
79016;DHT22;72726;44.842;37.556;2023-09-12T02:27:17;16.01;62.62
79016;DHT22;72726;44.842;37.556;2023-09-12T02:28:18;16.00;62.32
79016;DHT22;72726;44.842;37.556;2023-09-12T02:29:20;16.00;62.17
79016;DHT22;72726;44.842;37.556;2023-09-12T02:30:21;16.04;62.24
79016;DHT22;72726;44.842;37.556;2023-09-12T02:31:22;16.03;62.18
79016;DHT22;72726;44.842;37.556;2023-09-12T02:32:24;16.03;62.20
79016;DHT22;72726;44.842;37.556;2023-09-12T02:33:25;16.04;62.08
79016;DHT22;72726;44.842;37.556;2023-09-12T02:34:26;16.05;61.98
79016;DHT22;72726;44.842;37.556;2023-09-12T02:35:28;16.08;61.79
79016;DHT22;72726;44.842;37.556;2023-09-12T02:36:30;16.10;62.16
79016;DHT22;72726;44.842;37.556;2023-09-12T02:37:32;16.08;61.70
79016;DHT22;72726;44.842;37.556;2023-09-12T02:38:33;16.07;61.85
79016;DHT22;72726;44.842;37.556;2023-09-12T02:39:35;16.07;61.67
79016;DHT22;72726;44.842;37.556;2023-09-12T02:40:36;16.08;61.71
79016;DHT22;72726;44.842;37.556;2023-09-12T02:41:37;16.07;62.35
79016;DHT22;72726;44.842;37.556;2023-09-12T02:42:38;16.04;63.08
79016;DHT22;72726;44.842;37.556;2023-09-12T02:43:39;15.98;63.79
79016;DHT22;72726;44.842;37.556;2023-09-12T02:44:41;15.98;64.03
79016;DHT22;72726;44.842;37.556;2023-09-12T02:45:42;15.97;64.01
79016;DHT22;72726;44.842;37.556;2023-09-12T02:46:43;15.90;64.38
79016;DHT22;72726;44.842;37.556;2023-09-12T02:47:44;15.85;64.77
79016;DHT22;72726;44.842;37.556;2023-09-12T02:48:47;15.85;64.94
79016;DHT22;72726;44.842;37.556;2023-09-12T02:49:48;15.79;65.10
79016;DHT22;72726;44.842;37.556;2023-09-12T02:50:50;15.76;65.38
79016;DHT22;72726;44.842;37.556;2023-09-12T02:51:51;15.77;65.44
79016;DHT22;72726;44.842;37.556;2023-09-12T02:52:54;15.76;65.59
79016;DHT22;72726;44.842;37.556;2023-09-12T02:53:55;15.73;65.66
79016;DHT22;72726;44.842;37.556;2023-09-12T02:54:56;15.76;65.65
79016;DHT22;72726;44.842;37.556;2023-09-12T02:55:57;15.70;65.67
79016;DHT22;72726;44.842;37.556;2023-09-12T02:56:59;15.73;65.76
79016;DHT22;72726;44.842;37.556;2023-09-12T02:58:00;15.74;65.85
79016;DHT22;72726;44.842;37.556;2023-09-12T02:59:01;15.73;65.77
79016;DHT22;72726;44.842;37.556;2023-09-12T03:00:03;15.71;65.74
79016;DHT22;72726;44.842;37.556;2023-09-12T03:01:07;15.71;65.95
79016;DHT22;72726;44.842;37.556;2023-09-12T03:02:08;15.71;66.01
79016;DHT22;72726;44.842;37.556;2023-09-12T03:03:09;15.71;65.96
79016;DHT22;72726;44.842;37.556;2023-09-12T03:04:10;15.73;65.93
79016;DHT22;72726;44.842;37.556;2023-09-12T03:05:12;15.71;65.93
79016;DHT22;72726;44.842;37.556;2023-09-12T03:06:13;15.73;65.86
79016;DHT22;72726;44.842;37.556;2023-09-12T03:07:15;15.74;65.87
79016;DHT22;72726;44.842;37.556;2023-09-12T03:08:17;15.79;65.81
79016;DHT22;72726;44.842;37.556;2023-09-12T03:09:18;15.79;65.76
79016;DHT22;72726;44.842;37.556;2023-09-12T03:10:20;15.79;65.95
79016;DHT22;72726;44.842;37.556;2023-09-12T03:11:21;15.80;65.96
79016;DHT22;72726;44.842;37.556;2023-09-12T03:12:23;15.79;66.00
79016;DHT22;72726;44.842;37.556;2023-09-12T03:13:25;15.82;66.22
79016;DHT22;72726;44.842;37.556;2023-09-12T03:14:28;15.80;66.11
79016;DHT22;72726;44.842;37.556;2023-09-12T03:15:29;15.82;66.20
79016;DHT22;72726;44.842;37.556;2023-09-12T03:16:30;15.80;66.17
79016;DHT22;72726;44.842;37.556;2023-09-12T03:17:32;15.83;66.35
79016;DHT22;72726;44.842;37.556;2023-09-12T03:18:33;15.80;66.42
79016;DHT22;72726;44.842;37.556;2023-09-12T03:19:34;15.82;66.42
79016;DHT22;72726;44.842;37.556;2023-09-12T03:20:38;15.80;66.39
79016;DHT22;72726;44.842;37.556;2023-09-12T03:21:39;15.82;66.46
79016;DHT22;72726;44.842;37.556;2023-09-12T03:22:45;15.86;66.45
79016;DHT22;72726;44.842;37.556;2023-09-12T03:23:47;15.86;66.43
79016;DHT22;72726;44.842;37.556;2023-09-12T03:24:48;15.86;66.41
79016;DHT22;72726;44.842;37.556;2023-09-12T03:25:49;15.86;66.45
79016;DHT22;72726;44.842;37.556;2023-09-12T03:26:51;15.86;66.55
79016;DHT22;72726;44.842;37.556;2023-09-12T03:27:53;15.86;66.66
79016;DHT22;72726;44.842;37.556;2023-09-12T03:28:54;15.85;66.67
79016;DHT22;72726;44.842;37.556;2023-09-12T03:29:56;15.85;66.69
79016;DHT22;72726;44.842;37.556;2023-09-12T03:31:08;15.86;66.78
79016;DHT22;72726;44.842;37.556;2023-09-12T03:32:09;15.87;66.72
79016;DHT22;72726;44.842;37.556;2023-09-12T03:33:11;15.90;66.71
79016;DHT22;72726;44.842;37.556;2023-09-12T03:34:12;15.90;66.69
79016;DHT22;72726;44.842;37.556;2023-09-12T03:35:13;15.91;66.78
79016;DHT22;72726;44.842;37.556;2023-09-12T03:36:14;15.94;66.74
79016;DHT22;72726;44.842;37.556;2023-09-12T03:37:16;15.96;66.71
79016;DHT22;72726;44.842;37.556;2023-09-12T03:38:18;15.96;66.56
79016;DHT22;72726;44.842;37.556;2023-09-12T03:39:19;15.98;66.44
79016;DHT22;72726;44.842;37.556;2023-09-12T03:40:20;16.03;66.26
79016;DHT22;72726;44.842;37.556;2023-09-12T03:41:22;16.04;66.31
79016;DHT22;72726;44.842;37.556;2023-09-12T03:42:26;16.04;65.98
79016;DHT22;72726;44.842;37.556;2023-09-12T03:43:27;16.08;66.02
79016;DHT22;72726;44.842;37.556;2023-09-12T03:44:28;16.10;65.93
79016;DHT22;72726;44.842;37.556;2023-09-12T03:45:30;16.08;65.93
79016;DHT22;72726;44.842;37.556;2023-09-12T03:46:31;16.11;65.86
79016;DHT22;72726;44.842;37.556;2023-09-12T03:47:32;16.11;65.71
79016;DHT22;72726;44.842;37.556;2023-09-12T03:48:34;16.13;65.65
79016;DHT22;72726;44.842;37.556;2023-09-12T03:49:37;16.14;65.71
79016;DHT22;72726;44.842;37.556;2023-09-12T03:50:38;16.17;65.48
79016;DHT22;72726;44.842;37.556;2023-09-12T03:51:39;16.18;65.27
79016;DHT22;72726;44.842;37.556;2023-09-12T03:52:41;16.20;65.17
79016;DHT22;72726;44.842;37.556;2023-09-12T03:53:42;16.20;64.92
79016;DHT22;72726;44.842;37.556;2023-09-12T03:54:43;16.28;65.08
79016;DHT22;72726;44.842;37.556;2023-09-12T03:55:44;16.29;64.79
79016;DHT22;72726;44.842;37.556;2023-09-12T03:56:45;16.31;64.68
79016;DHT22;72726;44.842;37.556;2023-09-12T03:57:47;16.36;64.52
79016;DHT22;72726;44.842;37.556;2023-09-12T03:58:48;16.35;64.46
79016;DHT22;72726;44.842;37.556;2023-09-12T03:59:49;16.38;64.31
79016;DHT22;72726;44.842;37.556;2023-09-12T04:00:52;16.41;64.32
79016;DHT22;72726;44.842;37.556;2023-09-12T04:01:53;16.42;64.39
79016;DHT22;72726;44.842;37.556;2023-09-12T04:02:54;16.47;64.38
79016;DHT22;72726;44.842;37.556;2023-09-12T04:03:56;16.49;63.91
79016;DHT22;72726;44.842;37.556;2023-09-12T04:04:57;16.51;63.69
79016;DHT22;72726;44.842;37.556;2023-09-12T04:06:00;16.52;63.60
79016;DHT22;72726;44.842;37.556;2023-09-12T04:07:01;16.56;63.62
79016;DHT22;72726;44.842;37.556;2023-09-12T04:08:02;16.60;63.76
79016;DHT22;72726;44.842;37.556;2023-09-12T04:09:04;16.63;63.60
79016;DHT22;72726;44.842;37.556;2023-09-12T04:10:05;16.68;63.58
79016;DHT22;72726;44.842;37.556;2023-09-12T04:11:07;16.70;63.50
79016;DHT22;72726;44.842;37.556;2023-09-12T04:12:08;16.73;63.34
79016;DHT22;72726;44.842;37.556;2023-09-12T04:13:09;16.77;63.40
79016;DHT22;72726;44.842;37.556;2023-09-12T04:14:11;16.83;63.22
79016;DHT22;72726;44.842;37.556;2023-09-12T04:15:12;16.86;63.00
79016;DHT22;72726;44.842;37.556;2023-09-12T04:16:13;16.86;62.92
79016;DHT22;72726;44.842;37.556;2023-09-12T04:17:15;16.91;63.27
79016;DHT22;72726;44.842;37.556;2023-09-12T04:18:16;16.97;63.12
79016;DHT22;72726;44.842;37.556;2023-09-12T04:19:17;16.99;63.15
79016;DHT22;72726;44.842;37.556;2023-09-12T04:20:19;17.00;62.88
79016;DHT22;72726;44.842;37.556;2023-09-12T04:21:20;17.07;62.27
79016;DHT22;72726;44.842;37.556;2023-09-12T04:22:21;17.08;62.11
79016;DHT22;72726;44.842;37.556;2023-09-12T04:23:22;17.10;62.68
79016;DHT22;72726;44.842;37.556;2023-09-12T04:24:23;17.17;62.48
79016;DHT22;72726;44.842;37.556;2023-09-12T04:25:25;17.23;62.49
79016;DHT22;72726;44.842;37.556;2023-09-12T04:26:26;17.32;62.51
79016;DHT22;72726;44.842;37.556;2023-09-12T04:27:27;17.34;61.95
79016;DHT22;72726;44.842;37.556;2023-09-12T04:28:29;17.42;61.57
79016;DHT22;72726;44.842;37.556;2023-09-12T04:29:32;17.42;61.05
79016;DHT22;72726;44.842;37.556;2023-09-12T04:30:34;17.43;60.79
79016;DHT22;72726;44.842;37.556;2023-09-12T04:31:36;17.43;60.71
79016;DHT22;72726;44.842;37.556;2023-09-12T04:32:37;17.48;61.25
79016;DHT22;72726;44.842;37.556;2023-09-12T04:33:38;17.53;60.90
79016;DHT22;72726;44.842;37.556;2023-09-12T04:34:42;17.59;59.91
79016;DHT22;72726;44.842;37.556;2023-09-12T04:35:44;17.63;59.47
79016;DHT22;72726;44.842;37.556;2023-09-12T04:36:45;17.63;57.98
79016;DHT22;72726;44.842;37.556;2023-09-12T04:37:47;17.69;58.99
79016;DHT22;72726;44.842;37.556;2023-09-12T04:38:49;17.73;58.91
79016;DHT22;72726;44.842;37.556;2023-09-12T04:39:50;17.79;58.94
79016;DHT22;72726;44.842;37.556;2023-09-12T04:40:59;17.85;58.12
79016;DHT22;72726;44.842;37.556;2023-09-12T04:42:04;17.89;57.36
79016;DHT22;72726;44.842;37.556;2023-09-12T04:43:05;17.91;57.22
79016;DHT22;72726;44.842;37.556;2023-09-12T04:44:06;17.97;57.70
79016;DHT22;72726;44.842;37.556;2023-09-12T04:45:08;18.01;55.90
79016;DHT22;72726;44.842;37.556;2023-09-12T04:46:12;18.03;55.51
79016;DHT22;72726;44.842;37.556;2023-09-12T04:47:14;18.10;55.78
79016;DHT22;72726;44.842;37.556;2023-09-12T04:48:16;18.11;56.45
79016;DHT22;72726;44.842;37.556;2023-09-12T04:49:17;18.15;55.22
79016;DHT22;72726;44.842;37.556;2023-09-12T04:50:18;18.18;55.41
79016;DHT22;72726;44.842;37.556;2023-09-12T04:51:19;18.23;55.48
79016;DHT22;72726;44.842;37.556;2023-09-12T04:52:20;18.24;54.84
79016;DHT22;72726;44.842;37.556;2023-09-12T04:53:22;18.31;54.54
79016;DHT22;72726;44.842;37.556;2023-09-12T04:54:23;18.37;54.83
79016;DHT22;72726;44.842;37.556;2023-09-12T04:55:24;18.40;53.94
79016;DHT22;72726;44.842;37.556;2023-09-12T04:56:26;18.45;53.51
79016;DHT22;72726;44.842;37.556;2023-09-12T04:57:27;18.51;53.63
79016;DHT22;72726;44.842;37.556;2023-09-12T04:58:32;18.53;54.03
79016;DHT22;72726;44.842;37.556;2023-09-12T04:59:33;18.56;53.37
79016;DHT22;72726;44.842;37.556;2023-09-12T05:00:34;18.62;53.19
79016;DHT22;72726;44.842;37.556;2023-09-12T05:01:36;18.69;53.20
79016;DHT22;72726;44.842;37.556;2023-09-12T05:02:38;18.76;52.56
79016;DHT22;72726;44.842;37.556;2023-09-12T05:03:39;18.82;51.98
79016;DHT22;72726;44.842;37.556;2023-09-12T05:04:40;18.89;51.19
79016;DHT22;72726;44.842;37.556;2023-09-12T05:05:42;18.87;51.25
79016;DHT22;72726;44.842;37.556;2023-09-12T05:06:45;18.87;51.61
79016;DHT22;72726;44.842;37.556;2023-09-12T05:07:47;18.93;51.39
79016;DHT22;72726;44.842;37.556;2023-09-12T05:08:49;18.92;51.08
79016;DHT22;72726;44.842;37.556;2023-09-12T05:09:50;18.97;50.66
79016;DHT22;72726;44.842;37.556;2023-09-12T05:10:52;19.02;50.69
79016;DHT22;72726;44.842;37.556;2023-09-12T05:11:53;19.07;50.57
79016;DHT22;72726;44.842;37.556;2023-09-12T05:12:55;19.07;50.70
79016;DHT22;72726;44.842;37.556;2023-09-12T05:13:56;19.13;50.12
79016;DHT22;72726;44.842;37.556;2023-09-12T05:14:57;19.20;50.33
79016;DHT22;72726;44.842;37.556;2023-09-12T05:15:59;19.23;50.20
79016;DHT22;72726;44.842;37.556;2023-09-12T05:17:00;19.27;50.68
79016;DHT22;72726;44.842;37.556;2023-09-12T05:18:03;19.28;50.08
79016;DHT22;72726;44.842;37.556;2023-09-12T05:19:04;19.34;49.87
79016;DHT22;72726;44.842;37.556;2023-09-12T05:20:07;19.41;49.75
79016;DHT22;72726;44.842;37.556;2023-09-12T05:21:08;19.44;50.08
79016;DHT22;72726;44.842;37.556;2023-09-12T05:22:09;19.45;50.06
79016;DHT22;72726;44.842;37.556;2023-09-12T05:23:10;19.48;49.48
79016;DHT22;72726;44.842;37.556;2023-09-12T05:24:12;19.48;49.52
79016;DHT22;72726;44.842;37.556;2023-09-12T05:25:13;19.51;49.75
79016;DHT22;72726;44.842;37.556;2023-09-12T05:26:14;19.55;49.96
79016;DHT22;72726;44.842;37.556;2023-09-12T05:27:16;19.55;49.69
79016;DHT22;72726;44.842;37.556;2023-09-12T05:28:18;19.55;49.50
79016;DHT22;72726;44.842;37.556;2023-09-12T05:29:22;19.63;49.92
79016;DHT22;72726;44.842;37.556;2023-09-12T05:30:24;19.65;50.33
79016;DHT22;72726;44.842;37.556;2023-09-12T05:31:26;19.72;49.77
79016;DHT22;72726;44.842;37.556;2023-09-12T05:32:27;19.70;49.86
79016;DHT22;72726;44.842;37.556;2023-09-12T05:33:29;19.73;49.99
79016;DHT22;72726;44.842;37.556;2023-09-12T05:34:30;19.78;50.28
79016;DHT22;72726;44.842;37.556;2023-09-12T05:35:32;19.83;49.87
79016;DHT22;72726;44.842;37.556;2023-09-12T05:36:33;19.93;49.74
79016;DHT22;72726;44.842;37.556;2023-09-12T05:37:35;19.97;50.15
79016;DHT22;72726;44.842;37.556;2023-09-12T05:38:36;20.00;49.40
79016;DHT22;72726;44.842;37.556;2023-09-12T05:39:37;20.03;48.81
79016;DHT22;72726;44.842;37.556;2023-09-12T05:40:39;20.05;49.32
79016;DHT22;72726;44.842;37.556;2023-09-12T05:41:40;20.06;49.33
79016;DHT22;72726;44.842;37.556;2023-09-12T05:42:42;20.10;49.61
79016;DHT22;72726;44.842;37.556;2023-09-12T05:43:44;20.14;49.54
79016;DHT22;72726;44.842;37.556;2023-09-12T05:44:47;20.20;48.75
79016;DHT22;72726;44.842;37.556;2023-09-12T05:45:48;20.24;48.46
79016;DHT22;72726;44.842;37.556;2023-09-12T05:46:50;20.25;47.96
79016;DHT22;72726;44.842;37.556;2023-09-12T05:47:51;20.33;47.73
79016;DHT22;72726;44.842;37.556;2023-09-12T05:48:53;20.37;47.78
79016;DHT22;72726;44.842;37.556;2023-09-12T05:49:55;20.35;47.45
79016;DHT22;72726;44.842;37.556;2023-09-12T05:50:56;20.38;47.26
79016;DHT22;72726;44.842;37.556;2023-09-12T05:51:58;20.38;47.24
79016;DHT22;72726;44.842;37.556;2023-09-12T05:53:01;20.41;47.37
79016;DHT22;72726;44.842;37.556;2023-09-12T05:54:02;20.48;47.35
79016;DHT22;72726;44.842;37.556;2023-09-12T05:55:04;20.55;46.74
79016;DHT22;72726;44.842;37.556;2023-09-12T05:56:06;20.62;46.76
79016;DHT22;72726;44.842;37.556;2023-09-12T05:57:08;20.71;46.74
79016;DHT22;72726;44.842;37.556;2023-09-12T05:58:10;20.72;46.93
79016;DHT22;72726;44.842;37.556;2023-09-12T05:59:11;20.78;46.41
79016;DHT22;72726;44.842;37.556;2023-09-12T06:00:13;20.79;46.06
79016;DHT22;72726;44.842;37.556;2023-09-12T06:01:18;20.80;46.74
79016;DHT22;72726;44.842;37.556;2023-09-12T06:02:19;20.86;46.16
79016;DHT22;72726;44.842;37.556;2023-09-12T06:03:21;20.90;45.89
79016;DHT22;72726;44.842;37.556;2023-09-12T06:04:22;20.93;46.11
79016;DHT22;72726;44.842;37.556;2023-09-12T06:05:24;21.00;45.37
79016;DHT22;72726;44.842;37.556;2023-09-12T06:06:25;21.03;45.27
79016;DHT22;72726;44.842;37.556;2023-09-12T06:07:27;21.07;45.69
79016;DHT22;72726;44.842;37.556;2023-09-12T06:08:28;21.13;45.05
79016;DHT22;72726;44.842;37.556;2023-09-12T06:09:30;21.22;45.07
79016;DHT22;72726;44.842;37.556;2023-09-12T06:10:32;21.31;44.98
79016;DHT22;72726;44.842;37.556;2023-09-12T06:11:35;21.38;44.83
79016;DHT22;72726;44.842;37.556;2023-09-12T06:12:37;21.38;45.47
79016;DHT22;72726;44.842;37.556;2023-09-12T06:13:38;21.42;45.52
79016;DHT22;72726;44.842;37.556;2023-09-12T06:14:40;21.45;44.98
79016;DHT22;72726;44.842;37.556;2023-09-12T06:15:41;21.50;43.98
79016;DHT22;72726;44.842;37.556;2023-09-12T06:16:43;21.52;44.09
79016;DHT22;72726;44.842;37.556;2023-09-12T06:17:45;21.57;44.15
79016;DHT22;72726;44.842;37.556;2023-09-12T06:18:46;21.63;44.30
79016;DHT22;72726;44.842;37.556;2023-09-12T06:19:49;21.68;44.33
79016;DHT22;72726;44.842;37.556;2023-09-12T06:20:50;21.71;44.20
79016;DHT22;72726;44.842;37.556;2023-09-12T06:21:53;21.72;44.10
79016;DHT22;72726;44.842;37.556;2023-09-12T06:22:56;21.78;43.14
79016;DHT22;72726;44.842;37.556;2023-09-12T06:24:16;21.81;42.58
79016;DHT22;72726;44.842;37.556;2023-09-12T06:25:18;21.88;41.87
79016;DHT22;72726;44.842;37.556;2023-09-12T06:26:19;21.93;41.79
79016;DHT22;72726;44.842;37.556;2023-09-12T06:27:22;21.97;41.89
79016;DHT22;72726;44.842;37.556;2023-09-12T06:28:27;22.05;41.69
79016;DHT22;72726;44.842;37.556;2023-09-12T06:29:29;22.10;41.47